Time;durP1;ratioP1;P1;durP2;ratioP2;P2;SDS_P1;SDS_P2;PMS_P1;PMS_P2;Temp;Humidity;BMP_temperature;BMP_pressure;BME280_temperature;BME280_humidity;BME280_pressure;Samples;Min_cycle;Max_cycle;Signal;HPM_P1;HPM_P2
2023/11/06 00:00:25;;;;;;;0.80;0.80;;;7.50;99.90;;;;;;5072572;28;20224;-69
2023/11/06 00:02:51;;;;;;;0.60;0.60;;;7.50;99.90;;;;;;5072853;28;20690;-73
2023/11/06 00:05:17;;;;;;;0.60;0.60;;;7.60;99.90;;;;;;5075088;28;20204;-73
2023/11/06 00:07:43;;;;;;;0.60;0.60;;;7.60;99.90;;;;;;5092492;28;20216;-73
2023/11/06 00:10:09;;;;;;;0.80;0.80;;;7.60;99.90;;;;;;5092841;28;20238;-74
2023/11/06 00:12:44;;;;;;;4.93;2.13;;;7.60;99.90;;;;;;5092283;28;20196;-74
2023/11/06 00:15:13;;;;;;;0.50;0.50;;;7.60;99.90;;;;;;5092479;28;20187;-74
2023/11/06 00:17:39;;;;;;;0.70;0.70;;;7.60;99.90;;;;;;5092377;28;20725;-75
2023/11/06 00:20:10;;;;;;;0.80;0.80;;;7.60;99.90;;;;;;5092203;28;20671;-74
2023/11/06 00:22:36;;;;;;;0.80;0.80;;;7.50;99.90;;;;;;5092183;28;20635;-74
2023/11/06 00:25:03;;;;;;;0.60;0.60;;;7.60;99.90;;;;;;5092366;28;20196;-74
2023/11/06 00:27:29;;;;;;;0.70;0.70;;;7.60;99.90;;;;;;5092049;28;20204;-74
2023/11/06 00:29:54;;;;;;;0.70;0.70;;;7.60;99.90;;;;;;5092288;28;20265;-73
2023/11/06 00:32:20;;;;;;;0.75;0.75;;;7.60;99.90;;;;;;5091797;28;20192;-74
2023/11/06 00:34:46;;;;;;;0.70;0.70;;;7.60;99.90;;;;;;5092216;28;20196;-74
2023/11/06 00:37:11;;;;;;;0.82;0.82;;;7.60;99.90;;;;;;5092102;28;20208;-74
2023/11/06 00:39:37;;;;;;;0.60;0.60;;;7.60;99.90;;;;;;5091817;28;20279;-74
2023/11/06 00:42:07;;;;;;;0.90;0.90;;;7.60;99.90;;;;;;5092143;28;20283;-74
2023/11/06 00:44:33;;;;;;;0.52;0.52;;;7.60;99.90;;;;;;5091733;28;20605;-75
2023/11/06 00:46:59;;;;;;;0.70;0.70;;;7.60;99.90;;;;;;5091799;28;20655;-74
2023/11/06 00:49:25;;;;;;;0.60;0.60;;;7.60;99.90;;;;;;5092209;28;20267;-74
2023/11/06 00:51:51;;;;;;;0.60;0.60;;;7.60;99.90;;;;;;5092029;28;20275;-74
2023/11/06 00:54:17;;;;;;;0.77;0.77;;;7.60;99.90;;;;;;5091796;28;20311;-74
2023/11/06 00:56:43;;;;;;;0.63;0.63;;;7.60;99.90;;;;;;5076383;28;20232;-74
2023/11/06 00:59:08;;;;;;;0.60;0.60;;;7.60;99.90;;;;;;5071570;28;20201;-74
2023/11/06 01:01:34;;;;;;;0.45;0.45;;;7.60;99.90;;;;;;5053516;28;20706;-74
2023/11/06 01:04:01;;;;;;;0.70;0.70;;;7.60;99.90;;;;;;5071345;28;20205;-74
2023/11/06 01:06:27;;;;;;;0.70;0.70;;;7.60;99.90;;;;;;5071201;28;20189;-74
2023/11/06 01:08:54;;;;;;;0.80;0.80;;;7.60;99.90;;;;;;5071300;28;20205;-74
2023/11/06 01:11:20;;;;;;;2.15;2.00;;;7.70;99.90;;;;;;5071229;28;20756;-74
2023/11/06 01:13:46;;;;;;;1.25;1.15;;;7.70;99.90;;;;;;5053424;28;20263;-74
2023/11/06 01:16:12;;;;;;;0.70;0.70;;;7.60;99.90;;;;;;5071089;28;20563;-73
2023/11/06 01:18:37;;;;;;;0.75;0.75;;;7.60;99.90;;;;;;5070993;28;20197;-74
2023/11/06 01:21:03;;;;;;;0.70;0.70;;;7.60;99.90;;;;;;5070956;28;20196;-74
2023/11/06 01:23:29;;;;;;;0.88;0.88;;;7.60;99.90;;;;;;5052711;28;20207;-74
2023/11/06 01:25:56;;;;;;;0.70;0.70;;;7.50;99.90;;;;;;5070894;28;20208;-73
2023/11/06 01:28:21;;;;;;;0.60;0.60;;;7.50;99.90;;;;;;5070780;28;20254;-74
2023/11/06 01:30:47;;;;;;;0.93;0.93;;;7.50;99.90;;;;;;5071038;28;20905;-73
2023/11/06 01:33:15;;;;;;;0.60;0.60;;;7.40;99.90;;;;;;5071016;28;20270;-73
2023/11/06 01:35:41;;;;;;;0.60;0.60;;;7.40;99.90;;;;;;5070955;28;20228;-73
2023/11/06 01:38:07;;;;;;;0.60;0.60;;;7.40;99.90;;;;;;5052701;28;20236;-73
2023/11/06 01:40:33;;;;;;;0.60;0.60;;;7.30;99.90;;;;;;5070591;28;20200;-73
2023/11/06 01:43:06;;;;;;;0.70;0.70;;;7.30;99.90;;;;;;5070790;28;20196;-73
2023/11/06 01:45:39;;;;;;;0.60;0.60;;;7.30;99.90;;;;;;5070447;28;20243;-74
2023/11/06 01:48:05;;;;;;;0.50;0.50;;;7.30;99.90;;;;;;5070641;28;20603;-73
2023/11/06 01:50:36;;;;;;;0.70;0.70;;;7.30;99.90;;;;;;5070494;28;20200;-74
2023/11/06 01:53:06;;;;;;;0.60;0.60;;;7.30;99.90;;;;;;5070659;28;20189;-74
2023/11/06 01:55:33;;;;;;;0.75;0.75;;;7.40;99.90;;;;;;5075584;28;20223;-74
2023/11/06 01:57:58;;;;;;;0.68;0.68;;;7.40;99.90;;;;;;5072387;28;20682;-73
2023/11/06 02:00:26;;;;;;;0.70;0.70;;;7.40;99.90;;;;;;5090609;28;20365;-74
2023/11/06 02:02:53;;;;;;;0.65;0.65;;;7.30;99.90;;;;;;5090241;28;20652;-73
2023/11/06 02:05:19;;;;;;;0.70;0.70;;;7.30;99.90;;;;;;5090275;28;20663;-74
2023/11/06 02:07:48;;;;;;;0.80;0.80;;;7.30;99.90;;;;;;5089465;28;20208;-74
2023/11/06 02:10:17;;;;;;;0.60;0.60;;;7.30;99.90;;;;;;5090207;28;20208;-74
2023/11/06 02:12:44;;;;;;;0.60;0.60;;;7.30;99.90;;;;;;5089187;28;20599;-74
2023/11/06 02:15:16;;;;;;;1.00;1.00;;;7.40;99.90;;;;;;5069655;28;20221;-74
2023/11/06 02:17:42;;;;;;;0.70;0.70;;;7.40;99.90;;;;;;5069622;28;20239;-74
2023/11/06 02:20:09;;;;;;;0.63;0.63;;;7.40;99.90;;;;;;5069301;28;20599;-73
2023/11/06 02:22:39;;;;;;;0.65;0.65;;;7.40;99.90;;;;;;5069896;28;20566;-72
2023/11/06 02:25:05;;;;;;;0.60;0.60;;;7.40;99.90;;;;;;5069741;28;21190;-72
2023/11/06 02:27:31;;;;;;;0.70;0.70;;;7.40;99.90;;;;;;5069261;28;20288;-72
2023/11/06 02:29:56;;;;;;;0.60;0.60;;;7.50;99.90;;;;;;5051967;28;20228;-72
2023/11/06 02:32:22;;;;;;;0.70;0.70;;;7.50;99.90;;;;;;5069603;28;20197;-72
2023/11/06 02:34:48;;;;;;;1.30;1.13;;;7.50;99.90;;;;;;5051597;28;20234;-72
2023/11/06 02:37:13;;;;;;;0.70;0.70;;;7.50;99.90;;;;;;5051523;28;20203;-73
2023/11/06 02:39:39;;;;;;;0.65;0.65;;;7.50;99.90;;;;;;5069541;28;20284;-72
2023/11/06 02:42:06;;;;;;;0.57;0.57;;;7.50;99.90;;;;;;5069547;28;20232;-72
2023/11/06 02:44:31;;;;;;;0.70;0.70;;;7.50;99.90;;;;;;5069454;28;20250;-72
2023/11/06 02:46:57;;;;;;;0.70;0.70;;;7.50;99.90;;;;;;5069244;28;20198;-72
2023/11/06 02:49:24;;;;;;;0.70;0.70;;;7.50;99.90;;;;;;5051595;28;20193;-72
2023/11/06 02:51:53;;;;;;;0.70;0.70;;;7.50;99.90;;;;;;5069497;28;20192;-72
2023/11/06 02:54:23;;;;;;;1.33;1.23;;;7.50;99.90;;;;;;5051257;28;20683;-72
2023/11/06 02:56:49;;;;;;;0.65;0.65;;;7.50;99.90;;;;;;5053392;28;20225;-71
2023/11/06 02:59:15;;;;;;;0.63;0.63;;;7.50;99.90;;;;;;5049330;28;20260;-72
2023/11/06 03:01:42;;;;;;;1.80;1.70;;;7.50;99.90;;;;;;5031469;28;20562;-72
2023/11/06 03:04:12;;;;;;;0.70;0.70;;;7.50;99.90;;;;;;5067532;28;20219;-71
2023/11/06 03:06:39;;;;;;;0.70;0.70;;;7.50;99.90;;;;;;5068873;28;20204;-72
2023/11/06 03:09:14;;;;;;;0.47;0.47;;;7.50;99.90;;;;;;5068931;28;21061;-72
2023/11/06 03:11:40;;;;;;;0.80;0.80;;;7.50;99.90;;;;;;5069124;28;20197;-71
2023/11/06 03:14:06;;;;;;;0.98;0.98;;;7.50;99.90;;;;;;5069263;28;20226;-72
2023/11/06 03:16:35;;;;;;;0.60;0.60;;;7.50;99.90;;;;;;5069138;28;20203;-72
2023/11/06 03:19:03;;;;;;;0.60;0.60;;;7.50;99.90;;;;;;5051626;28;20203;-71
2023/11/06 03:21:28;;;;;;;1.05;1.05;;;7.50;99.90;;;;;;5068136;28;20311;-71
2023/11/06 03:23:54;;;;;;;0.68;0.68;;;7.50;99.90;;;;;;5069271;28;20280;-68
2023/11/06 03:26:21;;;;;;;0.65;0.65;;;7.50;99.90;;;;;;5068720;28;20272;-69
2023/11/06 03:28:47;;;;;;;0.82;0.82;;;7.50;99.90;;;;;;5068916;28;20208;-71
2023/11/06 03:31:13;;;;;;;1.35;1.25;;;7.50;99.90;;;;;;5069078;28;20201;-69
2023/11/06 03:33:38;;;;;;;1.42;1.33;;;7.50;99.90;;;;;;5068795;28;20627;-74
2023/11/06 03:36:04;;;;;;;0.70;0.70;;;7.50;99.90;;;;;;5069310;28;20188;-75
2023/11/06 03:38:30;;;;;;;0.60;0.60;;;7.50;99.90;;;;;;5068855;28;20218;-75
2023/11/06 03:40:56;;;;;;;1.15;1.05;;;7.50;99.90;;;;;;5069039;28;20193;-76
2023/11/06 03:43:22;;;;;;;0.60;0.60;;;7.50;99.90;;;;;;5068928;28;20204;-76
2023/11/06 03:45:47;;;;;;;0.70;0.70;;;7.50;99.90;;;;;;5068955;28;20603;-75
2023/11/06 03:48:14;;;;;;;0.90;0.90;;;7.50;99.90;;;;;;5068999;28;20290;-76
2023/11/06 03:50:42;;;;;;;1.02;1.02;;;7.50;99.90;;;;;;5069342;28;20212;-75
2023/11/06 03:53:13;;;;;;;0.80;0.80;;;7.50;99.90;;;;;;5068830;28;20246;-75
2023/11/06 03:55:39;;;;;;;0.70;0.70;;;7.50;99.90;;;;;;5074741;28;20694;-75
2023/11/06 03:58:05;;;;;;;1.33;1.23;;;7.50;99.90;;;;;;5088896;28;20711;-75
2023/11/06 04:00:31;;;;;;;2.08;1.90;;;7.50;99.90;;;;;;5068721;28;20284;-74
2023/11/06 04:02:56;;;;;;;1.48;1.38;;;7.50;99.90;;;;;;5083669;28;20722;-75
2023/11/06 04:05:22;;;;;;;1.10;1.10;;;7.50;99.90;;;;;;5088312;28;20220;-74
2023/11/06 04:07:48;;;;;;;0.55;0.55;;;7.50;99.90;;;;;;5087843;28;20344;-75
2023/11/06 04:10:14;;;;;;;0.60;0.60;;;7.50;99.90;;;;;;5087135;28;20603;-75
2023/11/06 04:12:40;;;;;;;3.40;2.67;;;7.50;99.90;;;;;;5088501;28;20192;-74
2023/11/06 04:15:06;;;;;;;2.05;1.52;;;7.50;99.90;;;;;;5088824;28;20674;-76
2023/11/06 04:17:32;;;;;;;1.10;1.10;;;7.50;99.90;;;;;;5065035;28;20215;-75
2023/11/06 04:19:58;;;;;;;0.75;0.75;;;7.50;99.90;;;;;;5068608;28;20197;-75
2023/11/06 04:22:23;;;;;;;0.80;0.80;;;7.50;99.90;;;;;;5068258;28;20555;-73
2023/11/06 04:24:49;;;;;;;0.60;0.60;;;7.50;99.90;;;;;;5050465;28;20668;-75
2023/11/06 04:27:15;;;;;;;0.93;0.93;;;7.50;99.90;;;;;;5068373;28;20572;-74
2023/11/06 04:29:40;;;;;;;0.70;0.70;;;7.50;99.90;;;;;;5068299;28;20208;-74
2023/11/06 04:32:06;;;;;;;0.60;0.60;;;7.50;99.90;;;;;;5052052;28;20199;-74
2023/11/06 04:34:32;;;;;;;0.70;0.70;;;7.50;99.90;;;;;;5071788;28;20239;-74
2023/11/06 04:36:58;;;;;;;0.60;0.60;;;7.50;99.90;;;;;;5071803;28;20216;-74
2023/11/06 04:39:24;;;;;;;0.70;0.70;;;7.50;99.90;;;;;;5053712;28;20291;-74
2023/11/06 04:41:49;;;;;;;0.70;0.70;;;7.50;99.90;;;;;;5071840;28;20188;-68
2023/11/06 04:44:15;;;;;;;0.70;0.70;;;7.50;99.90;;;;;;5071708;28;20664;-69
2023/11/06 04:46:41;;;;;;;0.50;0.50;;;7.50;99.90;;;;;;5071519;28;20659;-72
2023/11/06 04:49:07;;;;;;;0.60;0.60;;;7.50;99.90;;;;;;5071745;28;20571;-70
2023/11/06 04:51:32;;;;;;;1.15;1.00;;;7.50;99.90;;;;;;5071600;28;20197;-71
2023/11/06 04:53:58;;;;;;;6.15;2.78;;;7.50;99.90;;;;;;5071369;28;20228;-70
2023/11/06 04:56:24;;;;;;;0.90;0.90;;;7.50;99.90;;;;;;5075537;28;20225;-69
2023/11/06 04:58:50;;;;;;;0.50;0.50;;;7.50;99.90;;;;;;5071394;28;20197;-68
2023/11/06 05:01:17;;;;;;;1.20;1.13;;;7.50;99.90;;;;;;5071486;28;20205;-70
2023/11/06 05:03:42;;;;;;;0.85;0.85;;;7.50;99.90;;;;;;5049719;28;20607;-71
2023/11/06 05:06:08;;;;;;;0.57;0.57;;;7.50;99.90;;;;;;5061273;28;20279;-69
2023/11/06 05:08:35;;;;;;;0.70;0.70;;;7.50;99.90;;;;;;5071754;28;20213;-70
2023/11/06 05:11:01;;;;;;;0.90;0.90;;;7.50;99.90;;;;;;5071589;28;20197;-69
2023/11/06 05:13:27;;;;;;;0.80;0.80;;;7.50;99.90;;;;;;5071374;28;20232;-69
2023/11/06 05:15:52;;;;;;;0.60;0.60;;;7.50;99.90;;;;;;5053358;28;20291;-69
2023/11/06 05:18:18;;;;;;;1.02;0.98;;;7.40;99.90;;;;;;5071372;28;20224;-68
2023/11/06 05:20:44;;;;;;;0.60;0.60;;;7.50;99.90;;;;;;5071261;28;20694;-71
2023/11/06 05:23:11;;;;;;;0.55;0.55;;;7.50;99.90;;;;;;5071300;28;20537;-69
2023/11/06 05:25:37;;;;;;;0.60;0.60;;;7.50;99.90;;;;;;5070811;28;20352;-68
2023/11/06 05:28:03;;;;;;;0.57;0.57;;;7.40;99.90;;;;;;5070823;28;20216;-71
2023/11/06 05:30:30;;;;;;;0.50;0.50;;;7.50;99.90;;;;;;5070802;28;20200;-68
2023/11/06 05:32:57;;;;;;;0.50;0.50;;;7.50;99.90;;;;;;5070809;28;20276;-74
2023/11/06 05:35:23;;;;;;;0.50;0.50;;;7.50;99.90;;;;;;5070521;28;20193;-74
2023/11/06 05:37:50;;;;;;;0.60;0.60;;;7.50;99.90;;;;;;5070995;28;20637;-74
2023/11/06 05:40:16;;;;;;;1.02;1.02;;;7.50;99.90;;;;;;5052661;28;20211;-73
2023/11/06 05:42:42;;;;;;;0.73;0.73;;;7.50;99.90;;;;;;5070052;28;20229;-73
2023/11/06 05:45:09;;;;;;;1.00;1.00;;;7.40;99.90;;;;;;5070467;28;20192;-74
2023/11/06 05:47:35;;;;;;;0.70;0.70;;;7.40;99.90;;;;;;5052436;28;20676;-74
2023/11/06 05:50:02;;;;;;;0.77;0.77;;;7.40;99.90;;;;;;5070748;28;20660;-75
2023/11/06 05:52:28;;;;;;;0.60;0.60;;;7.40;99.90;;;;;;5055182;28;20572;-72
2023/11/06 05:54:54;;;;;;;0.60;0.60;;;7.40;99.90;;;;;;5050491;28;20198;-74
2023/11/06 05:57:19;;;;;;;0.80;0.80;;;7.40;99.90;;;;;;5069917;28;20270;-74
2023/11/06 05:59:45;;;;;;;0.70;0.70;;;7.40;99.90;;;;;;5070462;28;20212;-73
2023/11/06 06:02:11;;;;;;;0.70;0.70;;;7.40;99.90;;;;;;5070167;28;20193;-73
2023/11/06 06:04:38;;;;;;;0.70;0.70;;;7.40;99.90;;;;;;5069956;28;20201;-73
2023/11/06 06:07:05;;;;;;;0.63;0.63;;;7.40;99.90;;;;;;5087588;28;20192;-74
2023/11/06 06:09:32;;;;;;;0.70;0.70;;;7.40;99.90;;;;;;5090156;28;20652;-74
2023/11/06 06:11:58;;;;;;;0.50;0.50;;;7.40;99.90;;;;;;5090186;28;20184;-73
2023/11/06 06:14:24;;;;;;;0.60;0.60;;;7.40;99.90;;;;;;5090439;28;20231;-73
2023/11/06 06:16:49;;;;;;;0.70;0.70;;;7.40;99.90;;;;;;5071926;28;20228;-74
2023/11/06 06:19:16;;;;;;;0.70;0.70;;;7.40;99.90;;;;;;5090344;28;20279;-74
2023/11/06 06:21:43;;;;;;;0.80;0.80;;;7.40;99.90;;;;;;5075513;28;20220;-75
2023/11/06 06:24:09;;;;;;;1.05;1.05;;;7.40;99.90;;;;;;5070015;28;20201;-74
2023/11/06 06:26:38;;;;;;;0.80;0.80;;;7.40;99.90;;;;;;5069670;28;20657;-73
2023/11/06 06:29:04;;;;;;;0.60;0.60;;;7.40;99.90;;;;;;5068233;28;20213;-73
2023/11/06 06:31:30;;;;;;;0.80;0.80;;;7.40;99.90;;;;;;5069217;28;20196;-74
2023/11/06 06:33:56;;;;;;;0.70;0.70;;;7.40;99.90;;;;;;5069287;28;20258;-74
2023/11/06 06:36:23;;;;;;;0.50;0.50;;;7.40;99.90;;;;;;5069165;28;20565;-73
2023/11/06 06:38:49;;;;;;;0.80;0.80;;;7.40;99.90;;;;;;5069408;28;20231;-73
2023/11/06 06:41:15;;;;;;;0.50;0.50;;;7.40;99.90;;;;;;5069239;28;20234;-73
2023/11/06 06:43:41;;;;;;;0.60;0.60;;;7.40;99.90;;;;;;5069080;28;20611;-73
2023/11/06 06:46:06;;;;;;;0.60;0.60;;;7.40;99.90;;;;;;5069093;28;20197;-74
2023/11/06 06:48:32;;;;;;;0.60;0.60;;;7.40;99.90;;;;;;5082501;28;21020;-74
2023/11/06 06:50:58;;;;;;;0.60;0.60;;;7.40;99.90;;;;;;5089369;28;20192;-73
2023/11/06 06:53:24;;;;;;;0.70;0.70;;;7.40;99.90;;;;;;5087743;28;20196;-73
2023/11/06 06:55:50;;;;;;;0.60;0.60;;;7.40;99.90;;;;;;5064948;28;20784;-74
2023/11/06 06:58:16;;;;;;;0.70;0.70;;;7.40;99.90;;;;;;5048970;28;20205;-73
2023/11/06 07:00:45;;;;;;;2.38;2.17;;;7.40;99.90;;;;;;5030880;28;20209;-73
2023/11/06 07:03:11;;;;;;;1.25;1.17;;;7.40;99.90;;;;;;5049096;28;20197;-73
2023/11/06 07:05:37;;;;;;;1.58;1.48;;;7.40;99.90;;;;;;5054075;28;20265;-72
2023/11/06 07:08:03;;;;;;;1.10;1.00;;;7.40;99.90;;;;;;5069168;28;20578;-73
2023/11/06 07:10:30;;;;;;;0.60;0.60;;;7.40;99.90;;;;;;5069028;28;20280;-73
2023/11/06 07:12:57;;;;;;;0.70;0.70;;;7.40;99.90;;;;;;5068960;28;20680;-72
2023/11/06 07:15:25;;;;;;;1.27;1.23;;;7.40;99.90;;;;;;5050860;28;20680;-73
2023/11/06 07:17:52;;;;;;;6.28;3.78;;;7.40;99.90;;;;;;5055578;28;20193;-73
2023/11/06 07:20:18;;;;;;;0.90;0.90;;;7.40;99.90;;;;;;5049077;28;20561;-72
2023/11/06 07:22:44;;;;;;;1.73;1.55;;;7.40;99.90;;;;;;5048970;28;20213;-72
2023/11/06 07:25:10;;;;;;;1.48;1.35;;;7.40;99.90;;;;;;5048835;28;20193;-73
2023/11/06 07:27:36;;;;;;;1.38;1.27;;;7.40;99.90;;;;;;5048633;28;20201;-73
2023/11/06 07:30:03;;;;;;;0.70;0.70;;;7.40;99.90;;;;;;5048969;28;20194;-72
2023/11/06 07:32:29;;;;;;;0.80;0.80;;;7.40;99.90;;;;;;5031098;28;20611;-73
2023/11/06 07:34:54;;;;;;;0.80;0.80;;;7.40;99.90;;;;;;5048832;28;20197;-73
2023/11/06 07:37:20;;;;;;;1.25;1.15;;;7.50;99.90;;;;;;5067207;28;20200;-73
2023/11/06 07:39:46;;;;;;;1.42;1.33;;;7.50;99.90;;;;;;5068659;28;20250;-74
2023/11/06 07:42:11;;;;;;;2.05;1.85;;;7.50;99.90;;;;;;5068597;28;20185;-74
2023/11/06 07:44:39;;;;;;;2.58;1.63;;;7.50;99.90;;;;;;5056043;28;20600;-73
2023/11/06 07:47:06;;;;;;;0.70;0.70;;;7.50;99.90;;;;;;5048648;28;20198;-74
2023/11/06 07:49:32;;;;;;;0.60;0.60;;;7.50;99.90;;;;;;5048390;28;20197;-73
2023/11/06 07:51:59;;;;;;;0.60;0.60;;;7.50;99.90;;;;;;5048851;28;20691;-73
2023/11/06 07:54:25;;;;;;;0.80;0.80;;;7.50;99.90;;;;;;5048480;28;20744;-73
2023/11/06 07:56:51;;;;;;;2.38;1.45;;;7.50;99.90;;;;;;5064422;28;20267;-73
2023/11/06 07:59:16;;;;;;;2.40;2.20;;;7.50;99.90;;;;;;5068466;28;20251;-73
2023/11/06 08:01:42;;;;;;;7.60;1.75;;;7.50;99.90;;;;;;5068599;28;20208;-73
2023/11/06 08:04:07;;;;;;;3.05;1.95;;;7.50;99.90;;;;;;5086719;28;20207;-70
2023/11/06 08:06:35;;;;;;;1.27;1.27;;;7.50;99.90;;;;;;5089046;28;20269;-71
2023/11/06 08:09:00;;;;;;;3.38;2.33;;;7.50;99.90;;;;;;5091395;28;20215;-70
2023/11/06 08:11:26;;;;;;;1.00;1.00;;;7.50;99.90;;;;;;5074187;28;20538;-72
2023/11/06 08:13:52;;;;;;;1.55;1.08;;;7.50;99.90;;;;;;5080935;28;20257;-75
2023/11/06 08:16:17;;;;;;;1.58;1.45;;;7.60;99.90;;;;;;5072234;28;20193;-74
2023/11/06 08:18:44;;;;;;;1.58;1.48;;;7.60;99.90;;;;;;5072201;28;20197;-74
2023/11/06 08:21:10;;;;;;;0.52;0.52;;;7.60;99.90;;;;;;5072232;28;20220;-75
2023/11/06 08:23:36;;;;;;;0.90;0.90;;;7.60;99.90;;;;;;5054198;28;20244;-74
2023/11/06 08:26:01;;;;;;;1.25;1.15;;;7.60;99.90;;;;;;5072136;28;20192;-74
2023/11/06 08:28:27;;;;;;;0.73;0.73;;;7.60;99.90;;;;;;5071730;28;20212;-74
2023/11/06 08:30:54;;;;;;;0.70;0.70;;;7.60;99.90;;;;;;5072003;28;20726;-73
2023/11/06 08:33:20;;;;;;;0.80;0.80;;;7.60;99.90;;;;;;5053774;28;20204;-74
2023/11/06 08:35:46;;;;;;;0.73;0.73;;;7.70;99.90;;;;;;5071992;28;20192;-73
2023/11/06 08:38:12;;;;;;;1.13;1.13;;;7.70;99.90;;;;;;5072003;28;20250;-74
2023/11/06 08:40:38;;;;;;;1.10;1.05;;;7.70;99.90;;;;;;5071905;28;20729;-75
2023/11/06 08:43:04;;;;;;;1.00;0.90;;;7.70;99.90;;;;;;5072080;28;20197;-75
2023/11/06 08:45:29;;;;;;;0.50;0.50;;;7.70;99.90;;;;;;5071625;28;20193;-74
2023/11/06 08:47:55;;;;;;;0.65;0.65;;;7.70;99.90;;;;;;5072070;28;20794;-74
2023/11/06 08:50:21;;;;;;;0.70;0.70;;;7.70;99.90;;;;;;5071640;28;20235;-74
2023/11/06 08:52:47;;;;;;;1.10;1.00;;;7.70;99.90;;;;;;5071710;28;20686;-74
2023/11/06 08:55:13;;;;;;;1.35;1.25;;;7.70;99.90;;;;;;5083997;28;20228;-74
2023/11/06 08:57:39;;;;;;;2.08;1.90;;;7.70;99.90;;;;;;5053259;28;20299;-74
2023/11/06 09:00:08;;;;;;;3.13;2.38;;;7.70;99.90;;;;;;5053598;28;20201;-74
2023/11/06 09:02:35;;;;;;;1.15;1.15;;;7.70;99.90;;;;;;5071528;28;20283;-75
2023/11/06 09:05:00;;;;;;;0.60;0.60;;;7.70;99.90;;;;;;5071159;28;20718;-74
2023/11/06 09:07:27;;;;;;;5.07;2.15;;;7.70;99.90;;;;;;5071112;28;20220;-74
2023/11/06 09:09:53;;;;;;;0.60;0.60;;;7.70;99.90;;;;;;5061629;28;20598;-74
2023/11/06 09:12:19;;;;;;;0.60;0.60;;;7.70;99.90;;;;;;5051247;28;20262;-74
2023/11/06 09:14:45;;;;;;;0.70;0.70;;;7.70;99.90;;;;;;5051128;28;20216;-74
2023/11/06 09:17:10;;;;;;;0.80;0.77;;;7.70;99.90;;;;;;5032392;28;20673;-74
2023/11/06 09:19:36;;;;;;;0.90;0.90;;;7.70;99.90;;;;;;5031401;28;20309;-74
2023/11/06 09:22:03;;;;;;;0.60;0.60;;;7.70;99.90;;;;;;5050611;28;20189;-74
2023/11/06 09:24:29;;;;;;;0.60;0.60;;;7.70;99.90;;;;;;5048821;28;20193;-74
2023/11/06 09:26:56;;;;;;;0.70;0.70;;;7.80;99.90;;;;;;5050374;28;20668;-73
2023/11/06 09:29:22;;;;;;;1.75;1.63;;;7.80;99.90;;;;;;5050200;28;20244;-73
2023/11/06 09:31:47;;;;;;;1.95;1.50;;;7.80;99.90;;;;;;5032543;28;20550;-74
2023/11/06 09:34:14;;;;;;;1.27;1.17;;;7.80;99.90;;;;;;5050205;28;20197;-74
2023/11/06 09:36:40;;;;;;;0.80;0.80;;;7.80;99.90;;;;;;5058377;28;20829;-74
2023/11/06 09:39:09;;;;;;;0.70;0.70;;;7.80;99.90;;;;;;5068820;28;20209;-73
2023/11/06 09:41:35;;;;;;;1.00;1.00;;;7.90;99.90;;;;;;5070018;28;20217;-75
2023/11/06 09:44:01;;;;;;;0.60;0.60;;;7.90;99.90;;;;;;5039977;28;20553;-74
2023/11/06 09:46:29;;;;;;;0.70;0.70;;;7.90;99.90;;;;;;5050012;28;20208;-74
2023/11/06 09:48:58;;;;;;;0.60;0.60;;;8.00;99.90;;;;;;5049906;28;20205;-75
2023/11/06 09:51:29;;;;;;;1.25;1.15;;;8.00;99.90;;;;;;5049773;28;20765;-75
2023/11/06 09:53:59;;;;;;;1.40;1.30;;;8.00;99.90;;;;;;5049782;28;20193;-75
2023/11/06 09:56:26;;;;;;;0.50;0.50;;;8.10;99.90;;;;;;5040733;28;20231;-75
2023/11/06 09:58:52;;;;;;;0.98;0.98;;;8.10;99.90;;;;;;5049068;28;20322;-74
2023/11/06 10:01:17;;;;;;;0.63;0.63;;;8.10;99.90;;;;;;5051175;28;20229;-74
2023/11/06 10:03:43;;;;;;;0.55;0.55;;;8.10;99.90;;;;;;5050266;28;20193;-74
2023/11/06 10:06:09;;;;;;;0.50;0.50;;;8.10;99.90;;;;;;5050334;28;20189;-74
2023/11/06 10:08:36;;;;;;;0.60;0.60;;;8.20;99.90;;;;;;5049885;28;20216;-74
2023/11/06 10:11:04;;;;;;;0.70;0.70;;;8.20;99.90;;;;;;5048573;28;20205;-74
2023/11/06 10:13:30;;;;;;;0.88;0.88;;;8.20;99.90;;;;;;5050019;28;20201;-75
2023/11/06 10:15:56;;;;;;;1.50;1.40;;;8.20;99.90;;;;;;5050321;28;20197;-75
2023/11/06 10:18:26;;;;;;;0.60;0.60;;;8.30;99.90;;;;;;5049957;28;20198;-74
2023/11/06 10:20:54;;;;;;;0.60;0.60;;;8.30;99.90;;;;;;5048589;28;20808;-75
2023/11/06 10:23:26;;;;;;;0.70;0.70;;;8.30;99.90;;;;;;5048402;28;20284;-75
2023/11/06 10:26:08;;;;;;;0.70;0.70;;;8.40;99.90;;;;;;5048530;28;20288;-75
2023/11/06 10:28:33;;;;;;;0.60;0.60;;;8.40;99.90;;;;;;5049664;28;20217;-74
2023/11/06 10:31:00;;;;;;;0.50;0.50;;;8.50;99.90;;;;;;5049374;28;20201;-75
2023/11/06 10:33:29;;;;;;;0.60;0.60;;;8.50;99.90;;;;;;5062513;28;20224;-72
2023/11/06 10:35:56;;;;;;;0.70;0.70;;;8.50;99.90;;;;;;5070158;28;20276;-71
2023/11/06 10:38:24;;;;;;;2.72;1.83;;;8.50;99.90;;;;;;5069833;28;20549;-72
2023/11/06 10:40:50;;;;;;;1.65;1.55;;;8.50;99.90;;;;;;5052206;28;20263;-71
2023/11/06 10:43:18;;;;;;;0.70;0.70;;;8.50;99.90;;;;;;5050166;28;20197;-72
2023/11/06 10:45:45;;;;;;;0.70;0.70;;;8.40;99.90;;;;;;5048546;28;20205;-72
2023/11/06 10:48:15;;;;;;;0.70;0.70;;;8.40;99.90;;;;;;5050101;28;20209;-72
2023/11/06 10:50:44;;;;;;;0.80;0.80;;;8.40;99.90;;;;;;5050093;28;20189;-72
2023/11/06 10:53:11;;;;;;;0.60;0.60;;;8.40;99.90;;;;;;5050119;28;20606;-72
2023/11/06 10:55:37;;;;;;;1.08;1.02;;;8.30;99.90;;;;;;5048247;28;20287;-72
2023/11/06 10:58:03;;;;;;;0.60;0.60;;;8.40;99.90;;;;;;5048168;28;20209;-71
2023/11/06 11:00:31;;;;;;;0.55;0.55;;;8.40;99.90;;;;;;5049383;28;20686;-72
2023/11/06 11:02:58;;;;;;;0.70;0.70;;;8.40;99.90;;;;;;5049354;28;20668;-73
2023/11/06 11:05:27;;;;;;;0.68;0.68;;;8.40;99.90;;;;;;5052980;28;20188;-71
2023/11/06 11:07:54;;;;;;;0.70;0.70;;;8.40;99.90;;;;;;5068338;28;20212;-72
2023/11/06 11:10:22;;;;;;;0.60;0.60;;;8.40;99.90;;;;;;5068233;28;20197;-73
2023/11/06 11:12:51;;;;;;;1.70;1.58;;;8.40;99.90;;;;;;5069703;28;20207;-73
2023/11/06 11:15:31;;;;;;;2.15;1.58;;;8.40;99.90;;;;;;5070034;28;20181;-71
2023/11/06 11:18:05;;;;;;;0.60;0.60;;;8.40;99.90;;;;;;5068396;28;20245;-71
2023/11/06 11:20:49;;;;;;;0.70;0.70;;;8.50;99.90;;;;;;5069551;28;20225;-71
2023/11/06 11:23:15;;;;;;;0.50;0.50;;;8.50;99.90;;;;;;5069615;28;20280;-71
2023/11/06 11:25:58;;;;;;;0.60;0.60;;;8.50;99.90;;;;;;5067929;28;20707;-71
2023/11/06 11:28:26;;;;;;;0.60;0.60;;;8.50;99.90;;;;;;5069206;28;20215;-72
2023/11/06 11:31:11;;;;;;;0.60;0.60;;;8.60;99.90;;;;;;5069405;28;20694;-72
2023/11/06 11:33:54;;;;;;;0.60;0.60;;;8.60;99.90;;;;;;5069295;28;20208;-73
2023/11/06 11:36:33;;;;;;;0.70;0.70;;;8.50;99.90;;;;;;5068960;28;20193;-72
2023/11/06 11:39:17;;;;;;;0.82;0.82;;;8.60;99.90;;;;;;5069274;28;20672;-72
2023/11/06 11:42:04;;;;;;;0.60;0.60;;;8.50;99.90;;;;;;5070174;28;20265;-73
2023/11/06 11:44:31;;;;;;;0.50;0.50;;;8.50;99.90;;;;;;5072924;28;20550;-75
2023/11/06 11:47:00;;;;;;;0.63;0.63;;;8.50;99.90;;;;;;5073123;28;20253;-75
2023/11/06 11:49:46;;;;;;;0.60;0.60;;;8.60;99.90;;;;;;5071370;28;20224;-75
2023/11/06 11:52:36;;;;;;;1.02;1.02;;;8.60;99.90;;;;;;5073093;28;20281;-76
2023/11/06 11:55:27;;;;;;;2.13;1.88;;;8.60;99.90;;;;;;5072252;28;20207;-75
2023/11/06 11:58:14;;;;;;;4.00;3.17;;;8.60;99.90;;;;;;5092957;28;20287;-75
2023/11/06 12:00:44;;;;;;;3.35;2.65;;;8.60;99.90;;;;;;5092741;28;20736;-75
2023/11/06 12:03:10;;;;;;;1.20;1.08;;;8.60;99.90;;;;;;5092941;28;20196;-74
2023/11/06 12:05:37;;;;;;;0.63;0.63;;;8.60;99.90;;;;;;5092582;28;20616;-75
2023/11/06 12:08:17;;;;;;;2.00;1.85;;;8.60;99.90;;;;;;5092846;28;20577;-75
2023/11/06 12:10:43;;;;;;;2.80;1.92;;;8.60;99.90;;;;;;5074672;28;20641;-76
2023/11/06 12:13:19;;;;;;;0.75;0.75;;;8.60;99.90;;;;;;5074589;28;20192;-76
2023/11/06 12:15:45;;;;;;;1.00;1.00;;;8.50;99.90;;;;;;5092950;28;20188;-76
2023/11/06 12:18:15;;;;;;;0.93;0.90;;;8.60;99.90;;;;;;5092793;28;20208;-75
2023/11/06 12:20:41;;;;;;;0.80;0.80;;;8.60;99.90;;;;;;5092679;28;20678;-75
2023/11/06 12:23:08;;;;;;;0.50;0.50;;;8.60;99.90;;;;;;5092710;28;20210;-76
2023/11/06 12:25:35;;;;;;;0.60;0.60;;;8.60;99.90;;;;;;5064439;28;20223;-75
2023/11/06 12:28:05;;;;;;;0.60;0.60;;;8.60;99.90;;;;;;5072147;28;20938;-76
2023/11/06 12:30:33;;;;;;;0.50;0.50;;;8.60;99.90;;;;;;5072022;28;20667;-75
2023/11/06 12:33:19;;;;;;;0.50;0.50;;;8.60;99.90;;;;;;5072363;28;20582;-74
2023/11/06 12:35:46;;;;;;;0.85;0.85;;;8.60;99.90;;;;;;5072247;28;20595;-76
2023/11/06 12:38:12;;;;;;;0.60;0.60;;;8.60;99.90;;;;;;5053974;28;20200;-75
2023/11/06 12:40:43;;;;;;;0.57;0.57;;;8.50;99.90;;;;;;5071965;28;20252;-76
2023/11/06 12:43:11;;;;;;;0.95;0.95;;;8.50;99.90;;;;;;5072025;28;20196;-74
2023/11/06 12:45:40;;;;;;;0.60;0.60;;;8.50;99.90;;;;;;5071833;28;20674;-75
2023/11/06 12:48:32;;;;;;;0.70;0.68;;;8.50;99.90;;;;;;5071808;28;20629;-76
2023/11/06 12:51:10;;;;;;;0.65;0.65;;;8.50;99.90;;;;;;5071911;28;20683;-76
2023/11/06 12:53:44;;;;;;;0.50;0.50;;;8.50;99.90;;;;;;5071076;28;20548;-72
2023/11/06 12:56:12;;;;;;;0.68;0.68;;;8.40;99.90;;;;;;5061643;28;20221;-71
2023/11/06 12:58:38;;;;;;;0.50;0.50;;;8.40;99.90;;;;;;5051349;28;20298;-71